Time;durP1;ratioP1;P1;durP2;ratioP2;P2;SDS_P1;SDS_P2;PMS_P1;PMS_P2;Temp;Humidity;BMP_temperature;BMP_pressure;BME280_temperature;BME280_humidity;BME280_pressure;Samples;Min_cycle;Max_cycle;Signal;HPM_P1;HPM_P2
2021/04/12 00:00:22;;;;;;;;;;;2.40;99.90;;;;;;5090208;28;20003;-65
2021/04/12 00:02:48;;;;;;;;;;;2.50;99.90;;;;;;5083653;28;19912;-65
2021/04/12 00:05:20;;;;;;;;;;;2.40;99.90;;;;;;5095257;28;19915;-65
2021/04/12 00:07:52;;;;;;;;;;;2.40;99.90;;;;;;5082760;28;19912;-65
2021/04/12 00:10:20;;;;;;;;;;;2.40;99.90;;;;;;5093629;28;20309;-65
2021/04/12 00:12:54;;;;;;;;;;;2.10;99.90;;;;;;5097257;28;19916;-65
2021/04/12 00:15:23;;;;;;;;;;;2.00;99.90;;;;;;5097962;28;19911;-65
2021/04/12 00:17:49;;;;;;;;;;;2.10;99.90;;;;;;5080303;28;19955;-65
2021/04/12 00:20:47;;;;;;;;;;;2.30;99.90;;;;;;5093559;28;20359;-65
2021/04/12 00:23:21;;;;;;;;;;;2.20;99.90;;;;;;5052755;28;19908;-65
2021/04/12 00:25:51;;;;;;;;;;;2.10;99.90;;;;;;5080165;28;20029;-64
2021/04/12 00:28:28;;;;;;;;;;;1.90;99.90;;;;;;5083135;28;19916;-65
2021/04/12 00:30:59;;;;;;;;;;;2.00;99.90;;;;;;5080683;28;20290;-65
2021/04/12 00:33:27;;;;;;;;;;;2.10;99.90;;;;;;5094658;28;19912;-65
2021/04/12 00:36:00;;;;;;;;;;;2.20;99.90;;;;;;5094081;28;19915;-65
2021/04/12 00:38:28;;;;;;;;;;;2.10;99.90;;;;;;5101556;28;19994;-64
2021/04/12 00:41:08;;;;;;;;;;;2.20;99.90;;;;;;5089184;28;19918;-65
2021/04/12 00:43:46;;;;;;;;;;;2.30;99.90;;;;;;5085884;28;19912;-65
2021/04/12 00:46:30;;;;;;;;;;;2.20;99.90;;;;;;5086810;28;20387;-64
2021/04/12 00:49:14;;;;;;;;;;;2.20;99.90;;;;;;5083824;28;19919;-65
2021/04/12 00:51:39;;;;;;;;;;;1.90;99.90;;;;;;5085910;28;20387;-65
2021/04/12 00:54:05;;;;;;;;;;;1.90;99.90;;;;;;5077476;28;19912;-65
2021/04/12 00:56:41;;;;;;;;;;;1.70;99.90;;;;;;5088651;28;19999;-65
2021/04/12 00:59:25;;;;;;;;;;;1.60;99.90;;;;;;5094858;28;19912;-65
2021/04/12 01:02:06;;;;;;;;;;;1.60;99.90;;;;;;5079039;28;19915;-65
2021/04/12 01:04:34;;;;;;;;;;;1.40;99.90;;;;;;5079296;28;20007;-65
2021/04/12 01:07:18;;;;;;;;;;;1.30;99.90;;;;;;5093370;28;19907;-65
2021/04/12 01:10:13;;;;;;;;;;;1.30;99.90;;;;;;5092309;28;19915;-65
2021/04/12 01:12:38;;;;;;;;;;;1.20;99.90;;;;;;5042381;28;20034;-65
2021/04/12 01:15:23;;;;;;;;;;;1.10;99.90;;;;;;5088178;28;20456;-65
2021/04/12 01:18:08;;;;;;;;;;;0.90;99.90;;;;;;5088906;28;19903;-65
2021/04/12 01:20:36;;;;;;;;;;;0.90;99.90;;;;;;5093398;28;19920;-65
2021/04/12 01:23:24;;;;;;;;;;;0.80;99.90;;;;;;5078622;28;19915;-65
2021/04/12 01:26:08;;;;;;;;;;;0.70;99.90;;;;;;5063750;28;20404;-65
2021/04/12 01:28:49;;;;;;;;;;;0.80;99.90;;;;;;5085124;28;19961;-65
2021/04/12 01:31:26;;;;;;;;;;;0.80;99.90;;;;;;5083410;28;19912;-65
2021/04/12 01:34:09;;;;;;;;;;;0.80;99.90;;;;;;5102321;28;20310;-65
2021/04/12 01:36:41;;;;;;;;;;;0.90;99.90;;;;;;5076829;28;20012;-64
2021/04/12 01:39:15;;;;;;;;;;;1.20;99.90;;;;;;5090340;28;20321;-67
2021/04/12 01:42:06;;;;;;;;;;;1.60;99.90;;;;;;5068858;28;19912;-67
2021/04/12 01:44:47;;;;;;;;;;;1.80;99.90;;;;;;5084475;28;19908;-67
2021/04/12 01:47:34;;;;;;;;;;;1.90;99.90;;;;;;5089782;28;19916;-67
2021/04/12 01:49:59;;;;;;;;;;;1.90;99.90;;;;;;5090461;28;19952;-66
2021/04/12 01:52:37;;;;;;;;;;;2.00;99.90;;;;;;5082141;28;19966;-67
2021/04/12 01:55:22;;;;;;;;;;;1.90;99.90;;;;;;5087298;28;19912;-67
2021/04/12 01:57:48;;;;;;;;;;;1.90;99.90;;;;;;5087224;28;19915;-67
2021/04/12 02:00:16;;;;;;;;;;;1.90;99.90;;;;;;5088261;28;20317;-67
2021/04/12 02:03:00;;;;;;;;;;;1.70;99.90;;;;;;5088026;28;20275;-67
2021/04/12 02:05:25;;;;;;;;;;;1.80;99.90;;;;;;5088589;28;19993;-66
2021/04/12 02:08:09;;;;;;;;;;;1.80;99.90;;;;;;5101470;28;19916;-67
2021/04/12 02:10:44;;;;;;;;;;;1.90;99.90;;;;;;5081945;28;19943;-67
2021/04/12 02:13:10;;;;;;;;;;;1.90;99.90;;;;;;5088069;28;19916;-66
2021/04/12 02:15:56;;;;;;;;;;;1.90;99.90;;;;;;5088841;28;19937;-67
2021/04/12 02:18:21;;;;;;;;;;;1.90;99.90;;;;;;5069218;28;20305;-66
2021/04/12 02:21:05;;;;;;;;;;;1.90;99.90;;;;;;5082544;28;19912;-67
2021/04/12 02:23:47;;;;;;;;;;;1.90;99.90;;;;;;5073732;28;20263;-67
2021/04/12 02:26:16;;;;;;;;;;;1.80;99.90;;;;;;5068878;28;19915;-66
2021/04/12 02:28:52;;;;;;;;;;;1.80;99.90;;;;;;5083829;28;19904;-67
2021/04/12 02:31:30;;;;;;;;;;;1.80;99.90;;;;;;5086706;28;19924;-67
2021/04/12 02:33:56;;;;;;;;;;;1.80;99.90;;;;;;5089198;28;19916;-66
2021/04/12 02:36:24;;;;;;;;;;;1.80;99.90;;;;;;5088652;28;19912;-67
2021/04/12 02:39:08;;;;;;;;;;;1.70;99.90;;;;;;5091172;28;19908;-67
2021/04/12 02:41:53;;;;;;;;;;;1.70;99.90;;;;;;5083492;28;19908;-66
2021/04/12 02:44:34;;;;;;;;;;;1.60;99.90;;;;;;5087217;28;19999;-67
2021/04/12 02:47:19;;;;;;;;;;;1.50;99.90;;;;;;5083860;28;19924;-64
2021/04/12 02:50:04;;;;;;;;;;;1.30;99.90;;;;;;5084290;28;20015;-66
2021/04/12 02:52:49;;;;;;;;;;;1.30;99.90;;;;;;5081666;28;19920;-67
2021/04/12 02:55:24;;;;;;;;;;;1.10;99.90;;;;;;5080597;28;19999;-67
2021/04/12 02:58:07;;;;;;;;;;;1.20;99.90;;;;;;5081689;28;19908;-67
2021/04/12 03:00:55;;;;;;;;;;;1.30;99.90;;;;;;5093065;28;19995;-67
2021/04/12 03:03:32;;;;;;;;;;;1.30;99.90;;;;;;5094989;28;20354;-66
2021/04/12 03:06:16;;;;;;;;;;;1.50;99.90;;;;;;5100734;28;19982;-66
2021/04/12 03:08:53;;;;;;;;;;;1.60;99.90;;;;;;5084586;28;19912;-66
2021/04/12 03:11:19;;;;;;;;;;;1.60;99.90;;;;;;5090076;28;19912;-66
2021/04/12 03:13:53;;;;;;;;;;;1.60;99.90;;;;;;5089877;28;19919;-66
2021/04/12 03:16:37;;;;;;;;;;;1.60;99.90;;;;;;5090880;28;19908;-66
2021/04/12 03:19:21;;;;;;;;;;;1.60;99.90;;;;;;5086617;28;19904;-66
2021/04/12 03:21:49;;;;;;;;;;;1.60;99.90;;;;;;5105314;28;20430;-68
2021/04/12 03:24:29;;;;;;;;;;;1.60;99.90;;;;;;5073025;28;19912;-65
2021/04/12 03:27:13;;;;;;;;;;;1.60;99.90;;;;;;5086641;28;19908;-67
2021/04/12 03:29:54;;;;;;;;;;;1.60;99.90;;;;;;5087097;28;19908;-67
2021/04/12 03:32:25;;;;;;;;;;;1.70;99.90;;;;;;5092201;28;19962;-66
2021/04/12 03:34:57;;;;;;;;;;;1.70;99.90;;;;;;5081047;28;19912;-66
2021/04/12 03:37:25;;;;;;;;;;;1.70;99.90;;;;;;5104669;28;19908;-66
2021/04/12 03:39:54;;;;;;;;;;;1.70;99.90;;;;;;5106924;28;19911;-67
2021/04/12 03:42:34;;;;;;;;;;;1.70;99.90;;;;;;5087334;28;19908;-66
2021/04/12 03:45:16;;;;;;;;;;;1.70;99.90;;;;;;5083090;28;19908;-66
2021/04/12 03:47:44;;;;;;;;;;;1.60;99.90;;;;;;5074867;28;20109;-67
2021/04/12 03:50:12;;;;;;;;;;;1.60;99.90;;;;;;5079641;28;19955;-67
2021/04/12 03:52:41;;;;;;;;;;;1.60;99.90;;;;;;5058664;28;20370;-68
2021/04/12 03:55:06;;;;;;;;;;;1.60;99.90;;;;;;5077282;28;19915;-66
2021/04/12 03:57:54;;;;;;;;;;;1.50;99.90;;;;;;5091875;28;19912;-68
2021/04/12 04:00:39;;;;;;;;;;;1.50;99.90;;;;;;5077173;28;19912;-67
2021/04/12 04:03:13;;;;;;;;;;;1.40;99.90;;;;;;5069297;28;19999;-68
2021/04/12 04:05:41;;;;;;;;;;;1.40;99.90;;;;;;5076568;28;19916;-67
2021/04/12 04:08:29;;;;;;;;;;;1.30;99.90;;;;;;5071297;28;19919;-67
2021/04/12 04:10:57;;;;;;;;;;;1.30;99.90;;;;;;5076278;28;19908;-67
2021/04/12 04:13:41;;;;;;;;;;;1.30;99.90;;;;;;5072929;28;19916;-67
2021/04/12 04:16:25;;;;;;;;;;;1.30;99.90;;;;;;5074741;28;19912;-68
2021/04/12 04:18:54;;;;;;;;;;;1.30;99.90;;;;;;5076553;28;20548;-66
2021/04/12 04:21:31;;;;;;;;;;;1.20;99.90;;;;;;5076017;28;20012;-67
2021/04/12 04:24:03;;;;;;;;;;;1.00;99.90;;;;;;5079733;28;19911;-67
2021/04/12 04:26:52;;;;;;;;;;;1.00;99.90;;;;;;5070539;28;20452;-67
2021/04/12 04:29:24;;;;;;;;;;;1.00;99.90;;;;;;5059457;28;19912;-66
2021/04/12 04:31:52;;;;;;;;;;;1.10;99.90;;;;;;5070946;28;19960;-66
2021/04/12 04:34:21;;;;;;;;;;;1.00;99.90;;;;;;5089334;28;19919;-67
2021/04/12 04:36:46;;;;;;;;;;;1.10;99.90;;;;;;5072171;28;19908;-66
2021/04/12 04:39:30;;;;;;;;;;;1.20;99.90;;;;;;5078218;28;19976;-66
2021/04/12 04:42:04;;;;;;;;;;;1.20;99.90;;;;;;5073090;28;20179;-67
2021/04/12 04:44:30;;;;;;;;;;;1.20;99.90;;;;;;5070188;28;20283;-65
2021/04/12 04:47:14;;;;;;;;;;;1.30;99.90;;;;;;5072818;28;19924;-65
2021/04/12 04:49:48;;;;;;;;;;;1.20;99.90;;;;;;5071515;28;20003;-66
2021/04/12 04:52:17;;;;;;;;;;;1.10;99.90;;;;;;5074689;28;19920;-66
2021/04/12 04:54:43;;;;;;;;;;;1.10;99.90;;;;;;5076800;28;19930;-66
2021/04/12 04:57:24;;;;;;;;;;;0.80;99.90;;;;;;5077515;28;19908;-66
2021/04/12 04:59:49;;;;;;;;;;;0.70;99.90;;;;;;5075224;28;19908;-67
2021/04/12 05:02:18;;;;;;;;;;;0.80;99.90;;;;;;5076692;28;19912;-67
2021/04/12 05:05:01;;;;;;;;;;;0.70;99.90;;;;;;5073435;28;20065;-67
2021/04/12 05:07:27;;;;;;;;;;;0.60;99.90;;;;;;5075086;28;20375;-64
2021/04/12 05:10:25;;;;;;;;;;;0.70;99.90;;;;;;5086099;27;19953;-66
2021/04/12 05:13:10;;;;;;;;;;;0.60;99.90;;;;;;5025656;28;19931;-64
2021/04/12 05:15:39;;;;;;;;;;;0.60;99.90;;;;;;5067657;28;19912;-66
2021/04/12 05:18:23;;;;;;;;;;;0.80;99.90;;;;;;5080468;28;20267;-66
2021/04/12 05:20:54;;;;;;;;;;;0.90;99.90;;;;;;5072622;28;19930;-67
2021/04/12 05:23:32;;;;;;;;;;;1.00;99.90;;;;;;5072469;28;19905;-67
2021/04/12 05:26:12;;;;;;;;;;;1.00;99.90;;;;;;5074212;28;20092;-67
2021/04/12 05:28:38;;;;;;;;;;;0.90;99.90;;;;;;5075597;28;19943;-67
2021/04/12 05:31:22;;;;;;;;;;;0.90;99.90;;;;;;5078484;28;19974;-66
2021/04/12 05:34:08;;;;;;;;;;;0.90;99.90;;;;;;5088839;28;20283;-66
2021/04/12 05:36:33;;;;;;;;;;;0.80;99.90;;;;;;5087464;28;20023;-67
2021/04/12 05:39:21;;;;;;;;;;;1.00;99.90;;;;;;5085663;28;20011;-66
2021/04/12 05:42:05;;;;;;;;;;;0.90;99.90;;;;;;5082626;28;20019;-66
2021/04/12 05:44:57;;;;;;;;;;;0.80;99.90;;;;;;5078917;28;19933;-65
2021/04/12 05:47:34;;;;;;;;;;;1.00;99.90;;;;;;5079733;28;19966;-66
2021/04/12 05:50:12;;;;;;;;;;;1.20;99.90;;;;;;5089597;28;19908;-66
2021/04/12 05:52:56;;;;;;;;;;;1.30;99.90;;;;;;5085183;28;19916;-66
2021/04/12 05:55:41;;;;;;;;;;;1.50;99.90;;;;;;5095904;28;20267;-66
2021/04/12 05:58:22;;;;;;;;;;;1.60;99.90;;;;;;5097486;28;19915;-67
2021/04/12 06:01:11;;;;;;;;;;;1.70;99.90;;;;;;5072188;28;20004;-66
2021/04/12 06:03:44;;;;;;;;;;;1.70;99.90;;;;;;5089484;28;19911;-64
2021/04/12 06:06:25;;;;;;;;;;;1.90;99.90;;;;;;5106572;28;20409;-64
2021/04/12 06:08:53;;;;;;;;;;;2.00;99.90;;;;;;5074488;28;19989;-64
2021/04/12 06:11:32;;;;;;;;;;;2.20;99.90;;;;;;5077551;28;19923;-66
2021/04/12 06:14:14;;;;;;;;;;;2.30;99.90;;;;;;5059705;28;19927;-66
2021/04/12 06:16:48;;;;;;;;;;;2.60;99.90;;;;;;5081074;28;19931;-66
2021/04/12 06:19:25;;;;;;;;;;;2.60;99.90;;;;;;5078718;28;20578;-66
2021/04/12 06:22:03;;;;;;;;;;;2.70;99.90;;;;;;5079246;28;19919;-65
2021/04/12 06:24:28;;;;;;;;;;;2.80;99.90;;;;;;5079112;28;19916;-64
2021/04/12 06:27:13;;;;;;;;;;;3.20;99.90;;;;;;5082363;28;19986;-64
2021/04/12 06:29:47;;;;;;;;;;;3.20;99.90;;;;;;5085194;28;20412;-65
2021/04/12 06:32:15;;;;;;;;;;;3.40;99.90;;;;;;5064068;28;19947;-66
2021/04/12 06:34:59;;;;;;;;;;;3.50;99.90;;;;;;5085843;28;19916;-67
2021/04/12 06:37:28;;;;;;;;;;;3.70;99.90;;;;;;5087860;28;20319;-64
2021/04/12 06:40:11;;;;;;;;;;;3.90;99.90;;;;;;5086279;28;19922;-65
2021/04/12 06:42:56;;;;;;;;;;;4.00;99.90;;;;;;5085299;28;20000;-66
2021/04/12 06:45:35;;;;;;;;;;;3.80;99.90;;;;;;5089133;28;19943;-65
2021/04/12 06:48:17;;;;;;;;;;;3.90;99.90;;;;;;5085840;28;20190;-66
2021/04/12 06:50:46;;;;;;;;;;;4.00;99.90;;;;;;5086327;28;19911;-65
2021/04/12 06:53:11;;;;;;;;;;;4.10;99.90;;;;;;5087780;28;19931;-65
2021/04/12 06:55:55;;;;;;;;;;;4.00;99.90;;;;;;5093152;28;20030;-67
2021/04/12 06:58:23;;;;;;;;;;;3.90;99.90;;;;;;5098527;28;19904;-65
2021/04/12 07:01:21;;;;;;;;;;;4.00;99.90;;;;;;5091456;28;19944;-67
2021/04/12 07:04:05;;;;;;;;;;;4.00;99.90;;;;;;5081046;28;20006;-67
2021/04/12 07:06:31;;;;;;;;;;;4.20;99.90;;;;;;5088235;27;20504;-67
2021/04/12 07:08:59;;;;;;;;;;;4.40;99.90;;;;;;5076940;28;19908;-66
2021/04/12 07:11:36;;;;;;;;;;;4.80;99.90;;;;;;5071709;28;19939;-65
2021/04/12 07:14:20;;;;;;;;;;;4.70;99.90;;;;;;5083247;28;20125;-67
2021/04/12 07:16:46;;;;;;;;;;;4.40;99.90;;;;;;5082588;28;20362;-67
2021/04/12 07:19:17;;;;;;;;;;;4.20;99.90;;;;;;5092098;28;19912;-65
2021/04/12 07:22:02;;;;;;;;;;;4.20;99.90;;;;;;5041966;28;19917;-65
2021/04/12 07:24:36;;;;;;;;;;;4.20;99.90;;;;;;5044515;28;19944;-67
2021/04/12 07:27:31;;;;;;;;;;;4.30;99.90;;;;;;5050662;28;20443;-65
2021/04/12 07:30:16;;;;;;;;;;;4.30;99.90;;;;;;4974619;28;19910;-65
2021/04/12 07:32:43;;;;;;;;;;;4.70;99.90;;;;;;5050920;28;19928;-66
2021/04/12 07:35:29;;;;;;;;;;;5.00;99.90;;;;;;5055954;28;19908;-65
2021/04/12 07:38:14;;;;;;;;;;;5.00;99.90;;;;;;5047532;28;19952;-65
2021/04/12 07:40:54;;;;;;;;;;;5.20;99.90;;;;;;5057328;28;19915;-65
2021/04/12 07:43:32;;;;;;;;;;;5.30;99.90;;;;;;5044024;28;20280;-66
2021/04/12 07:46:10;;;;;;;;;;;5.30;99.90;;;;;;5041914;28;19980;-65
2021/04/12 07:48:54;;;;;;;;;;;5.00;99.90;;;;;;5052564;28;19958;-65
2021/04/12 07:51:29;;;;;;;;;;;5.10;99.90;;;;;;5046388;28;19921;-65
2021/04/12 07:54:04;;;;;;;;;;;5.20;99.90;;;;;;5064250;28;20355;-65
2021/04/12 07:57:06;;;;;;;;;;;5.20;99.90;;;;;;5085088;28;20359;-65
2021/04/12 07:59:54;;;;;;;;;;;5.00;99.90;;;;;;5084891;28;19908;-67
2021/04/12 08:02:38;;;;;;;;;;;5.00;99.90;;;;;;5064604;28;19919;-67
2021/04/12 08:05:16;;;;;;;;;;;5.00;99.90;;;;;;5089877;28;20619;-65
2021/04/12 08:08:08;;;;;;;;;;;5.10;99.90;;;;;;5073358;28;19940;-67
2021/04/12 08:10:52;;;;;;;;;;;5.00;99.90;;;;;;5098660;28;19904;-67
2021/04/12 08:13:40;;;;;;;;;;;4.90;99.90;;;;;;5095077;28;20017;-65
2021/04/12 08:16:44;;;;;;;;;;;5.20;99.90;;;;;;5058487;28;20256;-65
2021/04/12 08:19:19;;;;;;;;;;;5.30;99.90;;;;;;5007298;28;19996;-65
2021/04/12 08:21:47;;;;;;;;;;;5.50;99.90;;;;;;5020866;28;19991;-65
2021/04/12 08:24:27;;;;;;;;;;;5.60;99.90;;;;;;5010676;28;19913;-67
2021/04/12 08:27:32;;;;;;;;;;;5.10;99.90;;;;;;5011908;28;19960;-65
2021/04/12 08:30:16;;;;;;;;;;;5.50;99.90;;;;;;4937246;29;19941;-65
2021/04/12 08:32:41;;;;;;;;;;;5.50;99.90;;;;;;4929643;29;19919;-65
2021/04/12 08:35:26;;;;;;;;;;;5.80;99.90;;;;;;4930949;29;19982;-65
2021/04/12 08:38:03;;;;;;;;;;;6.00;99.90;;;;;;4940613;29;19921;-65
2021/04/12 08:40:29;;;;;;;;;;;6.20;99.90;;;;;;4928901;29;20359;-65
2021/04/12 08:42:57;;;;;;;;;;;6.60;99.90;;;;;;4935457;29;19958;-65
2021/04/12 08:45:28;;;;;;;;;;;6.60;99.90;;;;;;4928466;29;19923;-65
2021/04/12 08:47:57;;;;;;;;;;;6.90;99.90;;;;;;4929585;29;20381;-65
2021/04/12 08:50:30;;;;;;;;;;;7.10;99.90;;;;;;4966134;28;19909;-65
2021/04/12 08:53:13;;;;;;;;;;;7.00;99.90;;;;;;5000576;28;20056;-64
2021/04/12 08:55:45;;;;;;;;;;;6.80;99.90;;;;;;5003967;28;19995;-64
2021/04/12 08:58:20;;;;;;;;;;;7.30;99.90;;;;;;4983243;28;20409;-64
2021/04/12 09:01:05;;;;;;;;;;;7.80;99.90;;;;;;5038152;28;19908;-64
2021/04/12 09:03:48;;;;;;;;;;;7.70;99.90;;;;;;5089842;28;19912;-64
2021/04/12 09:06:23;;;;;;;;;;;7.90;99.90;;;;;;5088876;28;19908;-64
2021/04/12 09:09:09;;;;;;;;;;;8.30;99.90;;;;;;5089723;28;19908;-64
2021/04/12 09:11:35;;;;;;;;;;;8.10;99.90;;;;;;5098110;28;19916;-64
2021/04/12 09:14:19;;;;;;;;;;;7.90;99.90;;;;;;5089810;28;19908;-65
2021/04/12 09:16:56;;;;;;;;;;;7.60;99.90;;;;;;5083119;28;19911;-64
2021/04/12 09:19:25;;;;;;;;;;;8.00;99.90;;;;;;5083493;28;19951;-64
2021/04/12 09:21:56;;;;;;;;;;;8.30;99.90;;;;;;5089007;28;19947;-64
2021/04/12 09:24:40;;;;;;;;;;;7.90;99.90;;;;;;5063495;28;20283;-66
2021/04/12 09:27:24;;;;;;;;;;;7.60;99.90;;;;;;5101536;28;19908;-66
2021/04/12 09:29:53;;;;;;;;;;;8.10;99.90;;;;;;5082919;28;19980;-64
2021/04/12 09:32:37;;;;;;;;;;;8.10;99.90;;;;;;5080440;28;20310;-65
2021/04/12 09:35:18;;;;;;;;;;;7.40;99.90;;;;;;5081721;28;20001;-65
2021/04/12 09:38:02;;;;;;;;;;;6.90;99.90;;;;;;5080566;28;19923;-65
2021/04/12 09:40:41;;;;;;;;;;;6.90;99.90;;;;;;5081278;28;19965;-65
2021/04/12 09:43:25;;;;;;;;;;;7.10;99.90;;;;;;5085831;28;19907;-65
2021/04/12 09:46:05;;;;;;;;;;;7.20;99.90;;;;;;5081680;28;19938;-65
2021/04/12 09:48:49;;;;;;;;;;;7.10;99.90;;;;;;5094312;28;19950;-65
2021/04/12 09:51:14;;;;;;;;;;;6.90;99.90;;;;;;5086185;28;20488;-65
2021/04/12 09:54:14;;;;;;;;;;;6.70;99.90;;;;;;5074615;28;19911;-65
2021/04/12 09:56:54;;;;;;;;;;;7.90;99.90;;;;;;5072894;28;20370;-65
2021/04/12 09:59:25;;;;;;;;;;;9.80;99.90;;;;;;5083133;28;19915;-65
2021/04/12 10:02:09;;;;;;;;;;;9.10;99.90;;;;;;5092567;28;19920;-66
2021/04/12 10:04:42;;;;;;;;;;;8.70;99.90;;;;;;5080504;28;20011;-66
2021/04/12 10:07:16;;;;;;;;;;;8.50;99.90;;;;;;5088234;28;19916;-66
2021/04/12 10:09:48;;;;;;;;;;;9.20;99.90;;;;;;5071174;28;20433;-66
2021/04/12 10:12:16;;;;;;;;;;;10.60;99.90;;;;;;5072895;28;19919;-66
2021/04/12 10:14:48;;;;;;;;;;;10.20;99.90;;;;;;5067353;28;20369;-66
2021/04/12 10:17:19;;;;;;;;;;;9.10;99.90;;;;;;5077529;28;20385;-65
2021/04/12 10:19:48;;;;;;;;;;;9.50;99.90;;;;;;5074648;28;19958;-65
2021/04/12 10:22:15;;;;;;;;;;;10.50;99.90;;;;;;5076872;28;20003;-66
2021/04/12 10:24:59;;;;;;;;;;;11.50;99.90;;;;;;5071810;28;19912;-66
2021/04/12 10:27:33;;;;;;;;;;;12.10;98.90;;;;;;5072033;28;19942;-66
2021/04/12 10:29:58;;;;;;;;;;;11.90;97.20;;;;;;5069417;28;19950;-66
2021/04/12 10:32:26;;;;;;;;;;;11.80;95.60;;;;;;5078353;28;19967;-66
2021/04/12 10:35:07;;;;;;;;;;;11.70;96.00;;;;;;5081586;28;19908;-66
2021/04/12 10:37:35;;;;;;;;;;;10.60;96.60;;;;;;5078483;28;19915;-65
2021/04/12 10:40:01;;;;;;;;;;;8.50;99.90;;;;;;5081858;28;19930;-68
2021/04/12 10:42:42;;;;;;;;;;;7.10;99.90;;;;;;5079272;28;19919;-67
2021/04/12 10:45:11;;;;;;;;;;;6.30;99.90;;;;;;5060634;28;19908;-67
2021/04/12 10:47:56;;;;;;;;;;;6.00;99.90;;;;;;5078434;28;19922;-67
2021/04/12 10:50:31;;;;;;;;;;;5.70;99.90;;;;;;5058227;28;19915;-65
2021/04/12 10:53:23;;;;;;;;;;;5.70;99.90;;;;;;5074154;28;20011;-65
2021/04/12 10:56:00;;;;;;;;;;;6.10;99.90;;;;;;5068829;28;19908;-65
2021/04/12 10:58:45;;;;;;;;;;;6.70;99.90;;;;;;5081315;28;19948;-65
2021/04/12 11:01:17;;;;;;;;;;;7.20;99.90;;;;;;5076551;28;20363;-65
2021/04/12 11:03:44;;;;;;;;;;;7.70;99.90;;;;;;5077748;28;19927;-65
2021/04/12 11:06:11;;;;;;;;;;;9.20;99.90;;;;;;5077953;28;19937;-65
2021/04/12 11:09:08;;;;;;;;;;;10.30;99.90;;;;;;5077007;28;19908;-65
2021/04/12 11:11:48;;;;;;;;;;;11.30;99.90;;;;;;5040826;28;20406;-66
2021/04/12 11:14:22;;;;;;;;;;;12.00;99.90;;;;;;5085765;28;19953;-66
2021/04/12 11:16:49;;;;;;;;;;;10.70;99.90;;;;;;5083108;28;21812;-65
2021/04/12 11:19:18;;;;;;;;;;;10.40;99.90;;;;;;5086878;28;19922;-65
2021/04/12 11:21:50;;;;;;;;;;;10.50;99.90;;;;;;5076696;28;20379;-65
2021/04/12 11:24:22;;;;;;;;;;;10.00;99.90;;;;;;5095858;28;19907;-65
2021/04/12 11:26:57;;;;;;;;;;;9.80;99.90;;;;;;5087756;28;20428;-66
2021/04/12 11:29:27;;;;;;;;;;;10.90;99.80;;;;;;5090149;28;19974;-65
2021/04/12 11:32:01;;;;;;;;;;;12.10;97.50;;;;;;5099857;28;19968;-65
2021/04/12 11:34:27;;;;;;;;;;;11.80;94.30;;;;;;5105574;28;19922;-65
2021/04/12 11:37:01;;;;;;;;;;;11.70;94.10;;;;;;5088702;28;20253;-63
2021/04/12 11:39:32;;;;;;;;;;;11.50;96.20;;;;;;5104214;28;19907;-65
2021/04/12 11:42:18;;;;;;;;;;;10.50;94.80;;;;;;5098436;28;19931;-65
2021/04/12 11:45:10;;;;;;;;;;;10.00;95.60;;;;;;5077983;28;19978;-66
2021/04/12 11:47:44;;;;;;;;;;;11.10;96.70;;;;;;5086219;28;19977;-65
2021/04/12 11:50:23;;;;;;;;;;;11.80;92.90;;;;;;5090858;28;19907;-66
2021/04/12 11:53:07;;;;;;;;;;;12.80;94.00;;;;;;5056502;28;19920;-66
2021/04/12 11:55:35;;;;;;;;;;;13.50;90.80;;;;;;5092874;28;19949;-65
2021/04/12 11:58:02;;;;;;;;;;;13.00;90.10;;;;;;5077009;28;19904;-65
2021/04/12 12:00:30;;;;;;;;;;;13.70;87.40;;;;;;5091815;28;19912;-65
2021/04/12 12:02:55;;;;;;;;;;;13.90;82.70;;;;;;5089008;28;19912;-66
2021/04/12 12:05:39;;;;;;;;;;;12.10;90.30;;;;;;5091340;28;20168;-65
2021/04/12 12:08:08;;;;;;;;;;;9.40;97.90;;;;;;5091209;28;19911;-65
2021/04/12 12:10:40;;;;;;;;;;;8.00;99.90;;;;;;5082709;28;19908;-65
2021/04/12 12:13:24;;;;;;;;;;;7.60;99.90;;;;;;5089928;28;19915;-65
2021/04/12 12:16:09;;;;;;;;;;;7.50;99.90;;;;;;5091783;28;19908;-65
2021/04/12 12:18:39;;;;;;;;;;;7.40;99.90;;;;;;5089590;28;19950;-65
2021/04/12 12:21:22;;;;;;;;;;;7.60;99.90;;;;;;5099694;28;20269;-65
2021/04/12 12:23:54;;;;;;;;;;;7.50;99.90;;;;;;5072391;28;20390;-65
2021/04/12 12:26:26;;;;;;;;;;;7.40;99.90;;;;;;5088783;28;19990;-65
2021/04/12 12:28:58;;;;;;;;;;;7.60;99.90;;;;;;5086700;28;19904;-65
2021/04/12 12:31:32;;;;;;;;;;;9.20;99.90;;;;;;5086693;28;19918;-65
2021/04/12 12:34:03;;;;;;;;;;;10.30;99.90;;;;;;5087128;28;19963;-65
2021/04/12 12:36:38;;;;;;;;;;;10.90;99.60;;;;;;5088936;28;19908;-65
2021/04/12 12:39:22;;;;;;;;;;;10.60;99.30;;;;;;5087398;28;19931;-65
2021/04/12 12:41:48;;;;;;;;;;;11.30;99.50;;;;;;5085467;28;19911;-64
2021/04/12 12:44:17;;;;;;;;;;;11.20;99.40;;;;;;5086852;28;19915;-65
2021/04/12 12:46:43;;;;;;;;;;;12.50;98.40;;;;;;5088174;28;19924;-65
2021/04/12 12:49:09;;;;;;;;;;;12.80;97.30;;;;;;5067031;28;19922;-65
2021/04/12 12:51:47;;;;;;;;;;;13.10;96.20;;;;;;5085395;28;19928;-65
2021/04/12 12:54:21;;;;;;;;;;;14.00;95.00;;;;;;5084808;28;20535;-65
2021/04/12 12:56:46;;;;;;;;;;;13.10;91.20;;;;;;5084683;28;19912;-63
2021/04/12 12:59:21;;;;;;;;;;;13.70;92.10;;;;;;5064881;28;19908;-63
2021/04/12 13:01:47;;;;;;;;;;;12.90;90.50;;;;;;5086596;28;20355;-63
2021/04/12 13:04:17;;;;;;;;;;;12.10;90.60;;;;;;5087160;28;19920;-63
2021/04/12 13:06:45;;;;;;;;;;;11.40;90.50;;;;;;5087310;28;19915;-65
2021/04/12 13:09:22;;;;;;;;;;;9.70;92.80;;;;;;5084713;28;19970;-65
2021/04/12 13:11:49;;;;;;;;;;;9.00;96.40;;;;;;5067900;28;19924;-65
2021/04/12 13:14:15;;;;;;;;;;;9.60;97.60;;;;;;5086514;28;19912;-65
2021/04/12 13:16:41;;;;;;;;;;;10.40;94.80;;;;;;5080154;28;20304;-65
2021/04/12 13:19:07;;;;;;;;;;;11.70;93.20;;;;;;5086166;28;19916;-65
2021/04/12 13:21:35;;;;;;;;;;;11.10;92.00;;;;;;5084793;28;19916;-65
2021/04/12 13:24:01;;;;;;;;;;;;;;;;;;5082996;28;19908;-65
2021/04/12 13:26:27;;;;;;;;;;;;;;;;;;5084980;28;19966;-65
2021/04/12 13:28:53;;;;;;;;;;;;;;;;;;5085795;28;19946;-65
2021/04/12 13:31:21;;;;;;;;;;;;;;;;;;5069843;28;19959;-65
2021/04/12 13:33:47;;;;;;;;;;;;;;;;;;5067846;28;20708;-65
2021/04/12 13:36:13;;;;;;;;;;;;;;;;;;5086031;28;19916;-66
2021/04/12 13:38:39;;;;;;;;;;;;;;;;;;5087535;28;20340;-65
2021/04/12 13:41:07;;;;;;;;;;;;;;;;;;5086220;28;19947;-65
2021/04/12 13:43:33;;;;;;;;;;;;;;;;;;5086174;28;19936;-65
2021/04/12 13:45:59;;;;;;;;;;;;;;;;;;5085399;28;19912;-64
2021/04/12 13:48:25;;;;;;;;;;;;;;;;;;5086763;28;19989;-63
2021/04/12 13:50:51;;;;;;;;;;;;;;;;;;5085549;28;19955;-64
2021/04/12 13:53:17;;;;;;;;;;;;;;;;;;5086334;28;19971;-64
2021/04/12 13:55:43;;;;;;;;;;;;;;;;;;5085105;28;19945;-65
2021/04/12 13:58:09;;;;;;;;;;;;;;;;;;5086854;28;19954;-64
2021/04/12 14:00:35;;;;;;;;;;;;;;;;;;5087136;28;19950;-64
2021/04/12 14:03:01;;;;;;;;;;;;;;;;;;5090980;28;19912;-64
2021/04/12 14:05:27;;;;;;;;;;;;;;;;;;5068413;28;20258;-64
2021/04/12 14:07:53;;;;;;;;;;;;;;;;;;5079563;28;20341;-64
2021/04/12 14:10:19;;;;;;;;;;;;;;;;;;5098732;28;19995;-64
2021/04/12 14:12:45;;;;;;;;;;;;;;;;;;5068590;28;19924;-64
2021/04/12 14:15:11;;;;;;;;;;;;;;;;;;5085662;28;19955;-63
2021/04/12 14:17:36;;;;;;;;;;;;;;;;;;5086768;28;20283;-64
2021/04/12 14:20:02;;;;;;;;;;;;;;;;;;5088083;28;20300;-64
2021/04/12 14:22:28;;;;;;;;;;;;;;;;;;5085255;28;19951;-64
2021/04/12 14:24:54;;;;;;;;;;;;;;;;;;5062278;28;19963;-64
2021/04/12 14:27:20;;;;;;;;;;;;;;;;;;5059844;28;19939;-64
2021/04/12 14:29:46;;;;;;;;;;;;;;;;;;5062300;28;20291;-64
2021/04/12 14:32:12;;;;;;;;;;;;;;;;;;5061894;28;19936;-64
2021/04/12 14:34:38;;;;;;;;;;;;;;;;;;5060748;28;19959;-64
2021/04/12 14:37:04;;;;;;;;;;;;;;;;;;5061539;28;19947;-65
2021/04/12 14:39:31;;;;;;;;;;;;;;;;;;5058676;28;19916;-64
2021/04/12 14:41:57;;;;;;;;;;;;;;;;;;5059514;28;19915;-64
2021/04/12 14:44:23;;;;;;;;;;;;;;;;;;5059398;28;19909;-64
2021/04/12 14:46:49;;;;;;;;;;;;;;;;;;5060222;28;19948;-63
2021/04/12 14:49:15;;;;;;;;;;;;;;;;;;5060557;28;19916;-65
2021/04/12 14:51:41;;;;;;;;;;;;;;;;;;5062157;28;20376;-66
2021/04/12 14:54:07;;;;;;;;;;;;;;;;;;5061979;28;20347;-66
2021/04/12 14:56:33;;;;;;;;;;;;;;;;;;5062210;28;20319;-65
2021/04/12 14:58:58;;;;;;;;;;;;;;;;;;5085959;28;20357;-65
2021/04/12 15:01:24;;;;;;;;;;;;;;;;;;5084265;28;20303;-65
2021/04/12 15:03:50;;;;;;;;;;;;;;;;;;5083356;28;20002;-65
2021/04/12 15:06:16;;;;;;;;;;;;;;;;;;5086410;28;19962;-65
2021/04/12 15:08:42;;;;;;;;;;;;;;;;;;5086441;28;19955;-65
2021/04/12 15:11:08;;;;;;;;;;;;;;;;;;5087864;28;20000;-65
2021/04/12 15:13:34;;;;;;;;;;;;;;;;;;5089690;28;19916;-65
2021/04/12 15:16:00;;;;;;;;;;;;;;;;;;5087321;28;20676;-66
2021/04/12 15:18:27;;;;;;;;;;;;;;;;;;5084520;28;19948;-66
2021/04/12 15:20:53;;;;;;;;;;;;;;;;;;5079433;28;19923;-67
2021/04/12 15:23:19;;;;;;;;;;;;;;;;;;5082058;28;19955;-67
2021/04/12 15:25:45;;;;;;;;;;;;;;;;;;5081193;28;19985;-67
2021/04/12 15:28:11;;;;;;;;;;;;;;;;;;5090665;28;20003;-67
2021/04/12 15:30:36;;;;;;;;;;;;;;;;;;5088329;28;19947;-67